sensor_id;sensor_type;location;lat;lon;timestamp;pressure;altitude;pressure_sealevel;temperature
19102;BMP280;9683;49.028;12.064;2023-04-02T00:04:11;96325.75;;;11.59
19102;BMP280;9683;49.028;12.064;2023-04-02T00:06:38;96320.13;;;11.56
19102;BMP280;9683;49.028;12.064;2023-04-02T00:09:29;96334.78;;;11.58
19102;BMP280;9683;49.028;12.064;2023-04-02T00:11:56;96336.91;;;11.56
19102;BMP280;9683;49.028;12.064;2023-04-02T00:14:27;96333.97;;;11.53
19102;BMP280;9683;49.028;12.064;2023-04-02T00:16:55;96335.53;;;11.54
19102;BMP280;9683;49.028;12.064;2023-04-02T00:19:29;96337.44;;;11.53
19102;BMP280;9683;49.028;12.064;2023-04-02T00:21:57;96346.19;;;11.54
19102;BMP280;9683;49.028;12.064;2023-04-02T00:24:25;96349.94;;;11.53
19102;BMP280;9683;49.028;12.064;2023-04-02T00:26:52;96346.72;;;11.50
19102;BMP280;9683;49.028;12.064;2023-04-02T00:29:19;96347.53;;;11.51
19102;BMP280;9683;49.028;12.064;2023-04-02T00:31:48;96343.00;;;11.52
19102;BMP280;9683;49.028;12.064;2023-04-02T00:34:19;96342.19;;;11.51
19102;BMP280;9683;49.028;12.064;2023-04-02T00:36:51;96355.28;;;11.53
19102;BMP280;9683;49.028;12.064;2023-04-02T00:39:21;96346.72;;;11.50
19102;BMP280;9683;49.028;12.064;2023-04-02T00:41:52;96353.66;;;11.52
19102;BMP280;9683;49.028;12.064;2023-04-02T00:44:29;96347.75;;;11.49
19102;BMP280;9683;49.028;12.064;2023-04-02T00:46:58;96354.72;;;11.50
19102;BMP280;9683;49.028;12.064;2023-04-02T00:49:34;96354.94;;;11.49
19102;BMP280;9683;49.028;12.064;2023-04-02T00:52:04;96352.28;;;11.49
19102;BMP280;9683;49.028;12.064;2023-04-02T00:54:37;96352.28;;;11.49
19102;BMP280;9683;49.028;12.064;2023-04-02T00:57:12;96349.88;;;11.47
19102;BMP280;9683;49.028;12.064;2023-04-02T00:59:50;96356.50;;;11.45
19102;BMP280;9683;49.028;12.064;2023-04-02T01:02:23;96361.59;;;11.46
19102;BMP280;9683;49.028;12.064;2023-04-02T01:04:53;96365.06;;;11.47
19102;BMP280;9683;49.028;12.064;2023-04-02T01:07:34;96362.16;;;11.48
19102;BMP280;9683;49.028;12.064;2023-04-02T01:10:15;96362.94;;;11.49
19102;BMP280;9683;49.028;12.064;2023-04-02T01:12:51;96367.22;;;11.50
19102;BMP280;9683;49.028;12.064;2023-04-02T01:15:23;96369.88;;;11.50
19102;BMP280;9683;49.028;12.064;2023-04-02T01:18:04;96372.53;;;11.50
19102;BMP280;9683;49.028;12.064;2023-04-02T01:21:13;96374.41;;;11.49
19102;BMP280;9683;49.028;12.064;2023-04-02T01:23:57;96378.13;;;11.48
19102;BMP280;9683;49.028;12.064;2023-04-02T01:26:35;96378.13;;;11.48
19102;BMP280;9683;49.028;12.064;2023-04-02T01:29:09;96372.25;;;11.46
19102;BMP280;9683;49.028;12.064;2023-04-02T01:31:38;96379.13;;;11.42
19102;BMP280;9683;49.028;12.064;2023-04-02T01:34:07;96382.84;;;11.41
19102;BMP280;9683;49.028;12.064;2023-04-02T01:36:39;96388.16;;;11.41
19102;BMP280;9683;49.028;12.064;2023-04-02T01:39:16;96396.44;;;11.40
19102;BMP280;9683;49.028;12.064;2023-04-02T01:41:48;96391.09;;;11.40
19102;BMP280;9683;49.028;12.064;2023-04-02T01:44:20;96391.91;;;11.40
19102;BMP280;9683;49.028;12.064;2023-04-02T01:46:51;96387.63;;;11.39
19102;BMP280;9683;49.028;12.064;2023-04-02T01:49:20;96392.16;;;11.39
19102;BMP280;9683;49.028;12.064;2023-04-02T01:51:50;96394.56;;;11.40
19102;BMP280;9683;49.028;12.064;2023-04-02T01:54:19;96395.03;;;11.37
19102;BMP280;9683;49.028;12.064;2023-04-02T01:56:47;96390.75;;;11.36
19102;BMP280;9683;49.028;12.064;2023-04-02T01:59:16;96399.91;;;11.40
19102;BMP280;9683;49.028;12.064;2023-04-02T02:01:47;96399.56;;;11.37
19102;BMP280;9683;49.028;12.064;2023-04-02T02:04:17;96401.41;;;11.36
19102;BMP280;9683;49.028;12.064;2023-04-02T02:06:45;96400.13;;;11.39
19102;BMP280;9683;49.028;12.064;2023-04-02T02:09:16;96398.28;;;11.39
19102;BMP280;9683;49.028;12.064;2023-04-02T02:11:48;96399.09;;;11.40
19102;BMP280;9683;49.028;12.064;2023-04-02T02:14:17;96399.63;;;11.42
19102;BMP280;9683;49.028;12.064;2023-04-02T02:16:46;96401.47;;;11.41
19102;BMP280;9683;49.028;12.064;2023-04-02T02:19:20;96404.44;;;11.45
19102;BMP280;9683;49.028;12.064;2023-04-02T02:21:50;96412.69;;;11.43
19102;BMP280;9683;49.028;12.064;2023-04-02T02:24:20;96406.81;;;11.41
19102;BMP280;9683;49.028;12.064;2023-04-02T02:26:55;96407.88;;;11.40
19102;BMP280;9683;49.028;12.064;2023-04-02T02:29:25;96414.25;;;11.39
19102;BMP280;9683;49.028;12.064;2023-04-02T02:31:54;96413.44;;;11.39
19102;BMP280;9683;49.028;12.064;2023-04-02T02:34:26;96408.94;;;11.39
19102;BMP280;9683;49.028;12.064;2023-04-02T02:36:58;96419.59;;;11.39
19102;BMP280;9683;49.028;12.064;2023-04-02T02:39:33;96423.88;;;11.40
19102;BMP280;9683;49.028;12.064;2023-04-02T02:42:07;96423.88;;;11.40
19102;BMP280;9683;49.028;12.064;2023-04-02T02:44:36;96428.13;;;11.41
19102;BMP280;9683;49.028;12.064;2023-04-02T02:47:09;96428.91;;;11.42
19102;BMP280;9683;49.028;12.064;2023-04-02T02:49:41;96427.31;;;11.41
19102;BMP280;9683;49.028;12.064;2023-04-02T02:52:13;96432.97;;;11.44
19102;BMP280;9683;49.028;12.064;2023-04-02T02:54:43;96437.22;;;11.45
19102;BMP280;9683;49.028;12.064;2023-04-02T02:57:14;96434.00;;;11.43
19102;BMP280;9683;49.028;12.064;2023-04-02T02:59:43;96434.53;;;11.40
19102;BMP280;9683;49.028;12.064;2023-04-02T03:02:13;96438.22;;;11.39
19102;BMP280;9683;49.028;12.064;2023-04-02T03:04:45;96446.22;;;11.39
19102;BMP280;9683;49.028;12.064;2023-04-02T03:07:13;96444.84;;;11.37
19102;BMP280;9683;49.028;12.064;2023-04-02T03:09:44;96453.16;;;11.40
19102;BMP280;9683;49.028;12.064;2023-04-02T03:12:27;96452.34;;;11.40
19102;BMP280;9683;49.028;12.064;2023-04-02T03:14:58;96461.88;;;11.36
19102;BMP280;9683;49.028;12.064;2023-04-02T03:17:30;96461.81;;;11.31
19102;BMP280;9683;49.028;12.064;2023-04-02T03:20:02;96461.56;;;11.32
19102;BMP280;9683;49.028;12.064;2023-04-02T03:22:34;96458.84;;;11.27
19102;BMP280;9683;49.028;12.064;2023-04-02T03:25:08;96468.38;;;11.23
19102;BMP280;9683;49.028;12.064;2023-04-02T03:27:44;96473.63;;;11.18
19102;BMP280;9683;49.028;12.064;2023-04-02T03:30:25;96471.13;;;11.12
19102;BMP280;9683;49.028;12.064;2023-04-02T03:32:58;96468.75;;;11.10
19102;BMP280;9683;49.028;12.064;2023-04-02T03:35:30;96473.50;;;11.08
19102;BMP280;9683;49.028;12.064;2023-04-02T03:38:01;96476.81;;;11.15
19102;BMP280;9683;49.028;12.064;2023-04-02T03:40:33;96472.81;;;11.18
19102;BMP280;9683;49.028;12.064;2023-04-02T03:43:09;96471.78;;;11.19
19102;BMP280;9683;49.028;12.064;2023-04-02T03:45:38;96479.28;;;11.22
19102;BMP280;9683;49.028;12.064;2023-04-02T03:48:10;96480.06;;;11.22
19102;BMP280;9683;49.028;12.064;2023-04-02T03:50:42;96478.22;;;11.23
19102;BMP280;9683;49.028;12.064;2023-04-02T03:53:11;96477.41;;;11.22
19102;BMP280;9683;49.028;12.064;2023-04-02T03:55:39;96484.09;;;11.25
19102;BMP280;9683;49.028;12.064;2023-04-02T03:58:11;96491.03;;;11.26
19102;BMP280;9683;49.028;12.064;2023-04-02T04:00:43;96494.50;;;11.26
19102;BMP280;9683;49.028;12.064;2023-04-02T04:03:15;96495.84;;;11.29
19102;BMP280;9683;49.028;12.064;2023-04-02T04:05:44;96496.59;;;11.24
19102;BMP280;9683;49.028;12.064;2023-04-02T04:08:16;96498.44;;;11.24
19102;BMP280;9683;49.028;12.064;2023-04-02T04:10:43;96499.25;;;11.24
19102;BMP280;9683;49.028;12.064;2023-04-02T04:13:12;96500.38;;;11.28
19102;BMP280;9683;49.028;12.064;2023-04-02T04:15:47;96502.81;;;11.30
19102;BMP280;9683;49.028;12.064;2023-04-02T04:18:25;96506.28;;;11.30
19102;BMP280;9683;49.028;12.064;2023-04-02T04:21:00;96507.31;;;11.29
19102;BMP280;9683;49.028;12.064;2023-04-02T04:23:29;96509.44;;;11.27
19102;BMP280;9683;49.028;12.064;2023-04-02T04:25:59;96520.31;;;11.26
19102;BMP280;9683;49.028;12.064;2023-04-02T04:28:32;96520.56;;;11.24
19102;BMP280;9683;49.028;12.064;2023-04-02T04:31:10;96528.00;;;11.22
19102;BMP280;9683;49.028;12.064;2023-04-02T04:33:46;96529.84;;;11.22
19102;BMP280;9683;49.028;12.064;2023-04-02T04:36:21;96541.81;;;11.19
19102;BMP280;9683;49.028;12.064;2023-04-02T04:38:52;96541.47;;;11.16
19102;BMP280;9683;49.028;12.064;2023-04-02T04:41:27;96538.50;;;11.12
19102;BMP280;9683;49.028;12.064;2023-04-02T04:43:59;96541.97;;;11.13
19102;BMP280;9683;49.028;12.064;2023-04-02T04:46:33;96542.53;;;11.15
19102;BMP280;9683;49.028;12.064;2023-04-02T04:49:08;96551.06;;;11.17
19102;BMP280;9683;49.028;12.064;2023-04-02T04:51:41;96554.25;;;11.14
19102;BMP280;9683;49.028;12.064;2023-04-02T04:54:11;96555.03;;;11.14
19102;BMP280;9683;49.028;12.064;2023-04-02T04:56:38;96563.50;;;11.11
19102;BMP280;9683;49.028;12.064;2023-04-02T04:59:13;96570.22;;;11.14
19102;BMP280;9683;49.028;12.064;2023-04-02T05:01:44;96566.75;;;11.13
19102;BMP280;9683;49.028;12.064;2023-04-02T05:04:16;96569.63;;;11.12
19102;BMP280;9683;49.028;12.064;2023-04-02T05:06:51;96572.56;;;11.10
19102;BMP280;9683;49.028;12.064;2023-04-02T05:09:22;96577.38;;;11.13
19102;BMP280;9683;49.028;12.064;2023-04-02T05:12:00;96577.38;;;11.13
19102;BMP280;9683;49.028;12.064;2023-04-02T05:14:33;96583.28;;;11.15
19102;BMP280;9683;49.028;12.064;2023-04-02T05:17:04;96584.66;;;11.18
19102;BMP280;9683;49.028;12.064;2023-04-02T05:19:38;96583.59;;;11.19
19102;BMP280;9683;49.028;12.064;2023-04-02T05:22:15;96590.28;;;11.21
19102;BMP280;9683;49.028;12.064;2023-04-02T05:24:57;96588.66;;;11.20
19102;BMP280;9683;49.028;12.064;2023-04-02T05:27:35;96596.66;;;11.20
19102;BMP280;9683;49.028;12.064;2023-04-02T05:30:09;96596.09;;;11.18
19102;BMP280;9683;49.028;12.064;2023-04-02T05:32:41;96596.81;;;11.14
19102;BMP280;9683;49.028;12.064;2023-04-02T05:35:15;96601.34;;;11.13
19102;BMP280;9683;49.028;12.064;2023-04-02T05:37:43;96606.09;;;11.11
19102;BMP280;9683;49.028;12.064;2023-04-02T05:40:14;96605.06;;;11.12
19102;BMP280;9683;49.028;12.064;2023-04-02T05:42:48;96607.97;;;11.11
19102;BMP280;9683;49.028;12.064;2023-04-02T05:45:23;96614.88;;;11.12
19102;BMP280;9683;49.028;12.064;2023-04-02T05:47:54;96619.41;;;11.11
19102;BMP280;9683;49.028;12.064;2023-04-02T05:50:28;96612.50;;;11.10
19102;BMP280;9683;49.028;12.064;2023-04-02T05:53:01;96618.38;;;11.12
19102;BMP280;9683;49.028;12.064;2023-04-02T05:55:37;96622.06;;;11.11
19102;BMP280;9683;49.028;12.064;2023-04-02T05:58:11;96619.97;;;11.13
19102;BMP280;9683;49.028;12.064;2023-04-02T06:00:48;96627.97;;;11.13
19102;BMP280;9683;49.028;12.064;2023-04-02T06:03:23;96622.06;;;11.11
19102;BMP280;9683;49.028;12.064;2023-04-02T06:05:56;96630.63;;;11.13
19102;BMP280;9683;49.028;12.064;2023-04-02T06:08:29;96627.97;;;11.13
19102;BMP280;9683;49.028;12.064;2023-04-02T06:11:03;96633.28;;;11.13
19102;BMP280;9683;49.028;12.064;2023-04-02T06:13:31;96644.97;;;11.12
19102;BMP280;9683;49.028;12.064;2023-04-02T06:15:58;96643.38;;;11.11
19102;BMP280;9683;49.028;12.064;2023-04-02T06:18:26;96635.97;;;11.13
19102;BMP280;9683;49.028;12.064;2023-04-02T06:20:55;96649.75;;;11.10
19102;BMP280;9683;49.028;12.064;2023-04-02T06:23:24;96651.34;;;11.11
19102;BMP280;9683;49.028;12.064;2023-04-02T06:25:59;96646.59;;;11.13
19102;BMP280;9683;49.028;12.064;2023-04-02T06:28:32;96651.44;;;11.16
19102;BMP280;9683;49.028;12.064;2023-04-02T06:31:05;96654.91;;;11.17
19102;BMP280;9683;49.028;12.064;2023-04-02T06:33:33;96656.22;;;11.14
19102;BMP280;9683;49.028;12.064;2023-04-02T06:36:03;96659.69;;;11.15
19102;BMP280;9683;49.028;12.064;2023-04-02T06:38:31;96665.00;;;11.15
19102;BMP280;9683;49.028;12.064;2023-04-02T06:41:00;96668.13;;;11.12
19102;BMP280;9683;49.028;12.064;2023-04-02T06:43:31;96667.41;;;11.16
19102;BMP280;9683;49.028;12.064;2023-04-02T06:46:02;96677.03;;;11.17
19102;BMP280;9683;49.028;12.064;2023-04-02T06:48:32;96683.16;;;11.18
19102;BMP280;9683;49.028;12.064;2023-04-02T06:51:04;96686.38;;;11.20
19102;BMP280;9683;49.028;12.064;2023-04-02T06:53:34;96687.44;;;11.19
19102;BMP280;9683;49.028;12.064;2023-04-02T06:56:03;96690.91;;;11.19
19102;BMP280;9683;49.028;12.064;2023-04-02T06:58:31;96693.00;;;11.17
19102;BMP280;9683;49.028;12.064;2023-04-02T07:00:58;96694.34;;;11.20
19102;BMP280;9683;49.028;12.064;2023-04-02T07:03:26;96700.59;;;11.25
19102;BMP280;9683;49.028;12.064;2023-04-02T07:05:54;96701.41;;;11.26
19102;BMP280;9683;49.028;12.064;2023-04-02T07:08:22;96706.22;;;11.29
19102;BMP280;9683;49.028;12.064;2023-04-02T07:10:49;96712.38;;;11.29
19102;BMP280;9683;49.028;12.064;2023-04-02T07:13:17;96712.63;;;11.28
19102;BMP280;9683;49.028;12.064;2023-04-02T07:15:45;96713.66;;;11.27
19102;BMP280;9683;49.028;12.064;2023-04-02T07:18:21;96707.38;;;11.33
19102;BMP280;9683;49.028;12.064;2023-04-02T07:20:48;96710.59;;;11.35
19102;BMP280;9683;49.028;12.064;2023-04-02T07:23:15;96708.66;;;11.30
19102;BMP280;9683;49.028;12.064;2023-04-02T07:25:43;96715.34;;;11.33
19102;BMP280;9683;49.028;12.064;2023-04-02T07:28:11;96718.34;;;11.36
19102;BMP280;9683;49.028;12.064;2023-04-02T07:30:38;96727.94;;;11.37
19102;BMP280;9683;49.028;12.064;2023-04-02T07:33:05;96731.09;;;11.34
19102;BMP280;9683;49.028;12.064;2023-04-02T07:35:31;96732.22;;;11.38
19102;BMP280;9683;49.028;12.064;2023-04-02T07:37:58;96728.75;;;11.38
19102;BMP280;9683;49.028;12.064;2023-04-02T07:40:25;96745.06;;;11.41
19102;BMP280;9683;49.028;12.064;2023-04-02T07:42:53;96735.81;;;11.44
19102;BMP280;9683;49.028;12.064;2023-04-02T07:45:20;96742.25;;;11.48
19102;BMP280;9683;49.028;12.064;2023-04-02T07:47:46;96747.00;;;11.46
19102;BMP280;9683;49.028;12.064;2023-04-02T07:50:13;96751.78;;;11.44
19102;BMP280;9683;49.028;12.064;2023-04-02T07:52:43;96759.78;;;11.44
19102;BMP280;9683;49.028;12.064;2023-04-02T07:55:11;96761.94;;;11.47
19102;BMP280;9683;49.028;12.064;2023-04-02T07:57:38;96758.56;;;11.52
19102;BMP280;9683;49.028;12.064;2023-04-02T08:00:10;96761.78;;;11.54
19102;BMP280;9683;49.028;12.064;2023-04-02T08:02:38;96769.53;;;11.55
19102;BMP280;9683;49.028;12.064;2023-04-02T08:05:06;96777.75;;;11.54
19102;BMP280;9683;49.028;12.064;2023-04-02T08:07:33;96781.50;;;11.53
19102;BMP280;9683;49.028;12.064;2023-04-02T08:09:59;96772.44;;;11.54
19102;BMP280;9683;49.028;12.064;2023-04-02T08:12:26;96779.97;;;11.57
19102;BMP280;9683;49.028;12.064;2023-04-02T08:14:53;96781.56;;;11.58
19102;BMP280;9683;49.028;12.064;2023-04-02T08:17:21;96783.69;;;11.56
19102;BMP280;9683;49.028;12.064;2023-04-02T08:19:47;96785.44;;;11.50
19102;BMP280;9683;49.028;12.064;2023-04-02T08:22:15;96795.28;;;11.49
19102;BMP280;9683;49.028;12.064;2023-04-02T08:24:41;96796.91;;;11.50
19102;BMP280;9683;49.028;12.064;2023-04-02T08:27:11;96804.41;;;11.54
19102;BMP280;9683;49.028;12.064;2023-04-02T08:29:39;96808.28;;;11.46
19102;BMP280;9683;49.028;12.064;2023-04-02T08:32:05;96799.06;;;11.37
19102;BMP280;9683;49.028;12.064;2023-04-02T08:34:33;96806.63;;;11.28
19102;BMP280;9683;49.028;12.064;2023-04-02T08:37:00;96801.88;;;11.30
19102;BMP280;9683;49.028;12.064;2023-04-02T08:39:26;96812.03;;;11.33
19102;BMP280;9683;49.028;12.064;2023-04-02T08:42:02;96816.44;;;11.39
19102;BMP280;9683;49.028;12.064;2023-04-02T08:44:40;96814.66;;;11.45
19102;BMP280;9683;49.028;12.064;2023-04-02T08:47:08;96814.66;;;11.45
19102;BMP280;9683;49.028;12.064;2023-04-02T08:49:43;96820.31;;;11.48
19102;BMP280;9683;49.028;12.064;2023-04-02T08:52:18;96824.69;;;11.55
19102;BMP280;9683;49.028;12.064;2023-04-02T08:54:46;96834.28;;;11.56
19102;BMP280;9683;49.028;12.064;2023-04-02T08:57:19;96830.59;;;11.57
19102;BMP280;9683;49.028;12.064;2023-04-02T08:59:55;96829.91;;;11.49
19102;BMP280;9683;49.028;12.064;2023-04-02T09:02:28;96826.91;;;11.46
19102;BMP280;9683;49.028;12.064;2023-04-02T09:04:58;96832.63;;;11.38
19102;BMP280;9683;49.028;12.064;2023-04-02T09:07:27;96830.34;;;11.30
19102;BMP280;9683;49.028;12.064;2023-04-02T09:09:54;96840.03;;;11.19
19102;BMP280;9683;49.028;12.064;2023-04-02T09:12:25;96842.75;;;11.24
19102;BMP280;9683;49.028;12.064;2023-04-02T09:14:59;96838.56;;;11.28
19102;BMP280;9683;49.028;12.064;2023-04-02T09:17:31;96849.91;;;11.35
19102;BMP280;9683;49.028;12.064;2023-04-02T09:20:01;96844.69;;;11.40
19102;BMP280;9683;49.028;12.064;2023-04-02T09:22:31;96856.72;;;11.43
19102;BMP280;9683;49.028;12.064;2023-04-02T09:25:00;96862.13;;;11.48
19102;BMP280;9683;49.028;12.064;2023-04-02T09:27:31;96856.66;;;11.55
19102;BMP280;9683;49.028;12.064;2023-04-02T09:30:02;96866.28;;;11.56
19102;BMP280;9683;49.028;12.064;2023-04-02T09:32:41;96866.59;;;11.59
19102;BMP280;9683;49.028;12.064;2023-04-02T09:35:13;96870.78;;;11.55
19102;BMP280;9683;49.028;12.064;2023-04-02T09:37:41;96874.38;;;11.61
19102;BMP280;9683;49.028;12.064;2023-04-02T09:40:16;96879.19;;;11.64
19102;BMP280;9683;49.028;12.064;2023-04-02T09:42:44;96878.41;;;11.63
19102;BMP280;9683;49.028;12.064;2023-04-02T09:45:13;96887.03;;;11.70
19102;BMP280;9683;49.028;12.064;2023-04-02T09:47:40;96886.25;;;11.70
19102;BMP280;9683;49.028;12.064;2023-04-02T09:50:29;96890.88;;;11.74
19102;BMP280;9683;49.028;12.064;2023-04-02T09:52:57;96893.31;;;11.76
19102;BMP280;9683;49.028;12.064;2023-04-02T09:55:25;96893.91;;;11.78
19102;BMP280;9683;49.028;12.064;2023-04-02T09:58:12;96903.41;;;11.74
19102;BMP280;9683;49.028;12.064;2023-04-02T10:00:40;96908.16;;;11.72
19102;BMP280;9683;49.028;12.064;2023-04-02T10:03:20;96908.63;;;11.69
19102;BMP280;9683;49.028;12.064;2023-04-02T10:06:03;96921.06;;;11.52
19102;BMP280;9683;49.028;12.064;2023-04-02T10:08:30;96919.53;;;11.27
19102;BMP280;9683;49.028;12.064;2023-04-02T10:10:59;96927.19;;;11.12
19102;BMP280;9683;49.028;12.064;2023-04-02T10:13:29;96924.41;;;11.07
19102;BMP280;9683;49.028;12.064;2023-04-02T10:16:02;96911.84;;;11.02
19102;BMP280;9683;49.028;12.064;2023-04-02T10:18:38;96934.38;;;11.12
19102;BMP280;9683;49.028;12.064;2023-04-02T10:21:12;96939.34;;;11.08
19102;BMP280;9683;49.028;12.064;2023-04-02T10:23:39;96927.44;;;11.11
19102;BMP280;9683;49.028;12.064;2023-04-02T10:26:19;96943.16;;;11.12
19102;BMP280;9683;49.028;12.064;2023-04-02T10:29:07;96948.84;;;11.04
19102;BMP280;9683;49.028;12.064;2023-04-02T10:31:45;96944.69;;;10.96
19102;BMP280;9683;49.028;12.064;2023-04-02T10:34:20;96951.66;;;10.97
19102;BMP280;9683;49.028;12.064;2023-04-02T10:36:50;96950.72;;;10.92
19102;BMP280;9683;49.028;12.064;2023-04-02T10:39:20;96956.50;;;10.89
19102;BMP280;9683;49.028;12.064;2023-04-02T10:41:52;96974.09;;;10.90
19102;BMP280;9683;49.028;12.064;2023-04-02T10:44:41;96971.31;;;10.85
19102;BMP280;9683;49.028;12.064;2023-04-02T10:47:17;96975.72;;;10.79
19102;BMP280;9683;49.028;12.064;2023-04-02T10:49:52;96987.50;;;10.72
19102;BMP280;9683;49.028;12.064;2023-04-02T10:52:28;96989.22;;;10.66
19102;BMP280;9683;49.028;12.064;2023-04-02T10:55:00;96994.88;;;10.58
19102;BMP280;9683;49.028;12.064;2023-04-02T10:57:33;96994.66;;;10.60
19102;BMP280;9683;49.028;12.064;2023-04-02T11:00:12;96986.44;;;10.49
19102;BMP280;9683;49.028;12.064;2023-04-02T11:02:45;96997.41;;;10.53
19102;BMP280;9683;49.028;12.064;2023-04-02T11:05:19;96997.75;;;10.45
19102;BMP280;9683;49.028;12.064;2023-04-02T11:07:58;97018.56;;;10.48
19102;BMP280;9683;49.028;12.064;2023-04-02T11:10:30;97010.38;;;10.49
19102;BMP280;9683;49.028;12.064;2023-04-02T11:13:01;97017.41;;;10.44
19102;BMP280;9683;49.028;12.064;2023-04-02T11:15:29;97009.44;;;10.44
19102;BMP280;9683;49.028;12.064;2023-04-02T11:17:56;97016.16;;;10.46
19102;BMP280;9683;49.028;12.064;2023-04-02T11:21:00;97020.47;;;10.59
19102;BMP280;9683;49.028;12.064;2023-04-02T11:23:31;97026.25;;;10.68
19102;BMP280;9683;49.028;12.064;2023-04-02T11:26:36;97032.75;;;10.83
19102;BMP280;9683;49.028;12.064;2023-04-02T11:29:07;97030.91;;;10.95
19102;BMP280;9683;49.028;12.064;2023-04-02T11:31:35;97029.31;;;11.06
19102;BMP280;9683;49.028;12.064;2023-04-02T11:34:01;97029.31;;;11.18
19102;BMP280;9683;49.028;12.064;2023-04-02T11:37:00;97047.81;;;11.36
19102;BMP280;9683;49.028;12.064;2023-04-02T11:39:59;97044.91;;;11.49
19102;BMP280;9683;49.028;12.064;2023-04-02T11:42:28;97055.22;;;11.57
19102;BMP280;9683;49.028;12.064;2023-04-02T11:44:58;97059.94;;;11.67
19102;BMP280;9683;49.028;12.064;2023-04-02T11:47:26;97068.41;;;11.75
19102;BMP280;9683;49.028;12.064;2023-04-02T11:50:00;97067.22;;;11.83
19102;BMP280;9683;49.028;12.064;2023-04-02T11:52:32;97066.53;;;11.87
19102;BMP280;9683;49.028;12.064;2023-04-02T11:55:14;97054.13;;;11.93
19102;BMP280;9683;49.028;12.064;2023-04-02T11:57:54;97071.94;;;12.04
19102;BMP280;9683;49.028;12.064;2023-04-02T12:00:33;97075.03;;;12.13
19102;BMP280;9683;49.028;12.064;2023-04-02T12:03:36;97060.53;;;12.20
19102;BMP280;9683;49.028;12.064;2023-04-02T12:06:11;97071.38;;;12.30
19102;BMP280;9683;49.028;12.064;2023-04-02T12:08:48;97079.25;;;12.37
19102;BMP280;9683;49.028;12.064;2023-04-02T12:11:29;97078.63;;;12.47
19102;BMP280;9683;49.028;12.064;2023-04-02T12:13:57;97087.31;;;12.54
19102;BMP280;9683;49.028;12.064;2023-04-02T12:16:24;97086.50;;;12.53
19102;BMP280;9683;49.028;12.064;2023-04-02T12:18:56;97100.25;;;12.62
19102;BMP280;9683;49.028;12.064;2023-04-02T12:21:24;97097.44;;;12.68
19102;BMP280;9683;49.028;12.064;2023-04-02T12:23:53;97106.34;;;12.74
19102;BMP280;9683;49.028;12.064;2023-04-02T12:26:33;97107.22;;;12.79
19102;BMP280;9683;49.028;12.064;2023-04-02T12:29:20;97111.06;;;12.83
19102;BMP280;9683;49.028;12.064;2023-04-02T12:31:48;97114.19;;;12.80
19102;BMP280;9683;49.028;12.064;2023-04-02T12:34:16;97113.25;;;12.86
19102;BMP280;9683;49.028;12.064;2023-04-02T12:36:55;97127.03;;;12.95
19102;BMP280;9683;49.028;12.064;2023-04-02T12:39:22;97130.84;;;12.99
19102;BMP280;9683;49.028;12.064;2023-04-02T12:41:50;97134.16;;;13.06
19102;BMP280;9683;49.028;12.064;2023-04-02T12:44:18;97132.19;;;13.02
19102;BMP280;9683;49.028;12.064;2023-04-02T12:46:46;97139.97;;;13.03
19102;BMP280;9683;49.028;12.064;2023-04-02T12:49:22;97137.41;;;13.08
19102;BMP280;9683;49.028;12.064;2023-04-02T12:51:50;97127.19;;;13.05
19102;BMP280;9683;49.028;12.064;2023-04-02T12:54:17;97135.78;;;13.07
19102;BMP280;9683;49.028;12.064;2023-04-02T12:56:45;97138.59;;;13.01
19102;BMP280;9683;49.028;12.064;2023-04-02T12:59:30;97142.66;;;13.03
19102;BMP280;9683;49.028;12.064;2023-04-02T13:02:01;97145.94;;;12.94
19102;BMP280;9683;49.028;12.064;2023-04-02T13:04:28;97155.50;;;12.90
19102;BMP280;9683;49.028;12.064;2023-04-02T13:06:55;97150.06;;;12.84
19102;BMP280;9683;49.028;12.064;2023-04-02T13:09:29;97157.13;;;12.91
19102;BMP280;9683;49.028;12.064;2023-04-02T13:11:56;97157.59;;;12.88
19102;BMP280;9683;49.028;12.064;2023-04-02T13:14:23;97153.06;;;12.88
19102;BMP280;9683;49.028;12.064;2023-04-02T13:16:51;97162.47;;;12.91
19102;BMP280;9683;49.028;12.064;2023-04-02T13:19:28;97164.22;;;12.85
19102;BMP280;9683;49.028;12.064;2023-04-02T13:21:56;97159.38;;;12.82
19102;BMP280;9683;49.028;12.064;2023-04-02T13:24:24;97166.06;;;12.84
19102;BMP280;9683;49.028;12.064;2023-04-02T13:26:53;97168.03;;;12.89
19102;BMP280;9683;49.028;12.064;2023-04-02T13:29:26;97175.31;;;12.94
19102;BMP280;9683;49.028;12.064;2023-04-02T13:31:56;97175.66;;;12.97
19102;BMP280;9683;49.028;12.064;2023-04-02T13:34:23;97176.72;;;12.96
19102;BMP280;9683;49.028;12.064;2023-04-02T13:36:50;97188.44;;;12.95
19102;BMP280;9683;49.028;12.064;2023-04-02T13:39:16;97186.22;;;12.92
19102;BMP280;9683;49.028;12.064;2023-04-02T13:41:46;97188.84;;;12.87
19102;BMP280;9683;49.028;12.064;2023-04-02T13:44:21;97190.94;;;12.85
19102;BMP280;9683;49.028;12.064;2023-04-02T13:46:48;97191.63;;;12.80
19102;BMP280;9683;49.028;12.064;2023-04-02T13:49:17;97190.25;;;12.78
19102;BMP280;9683;49.028;12.064;2023-04-02T13:51:46;97197.13;;;12.74
19102;BMP280;9683;49.028;12.064;2023-04-02T13:54:17;97198.88;;;12.68
19102;BMP280;9683;49.028;12.064;2023-04-02T13:56:45;97199.03;;;12.62
19102;BMP280;9683;49.028;12.064;2023-04-02T13:59:11;97202.97;;;12.59
19102;BMP280;9683;49.028;12.064;2023-04-02T14:01:39;97198.91;;;12.57
19102;BMP280;9683;49.028;12.064;2023-04-02T14:04:06;97206.94;;;12.57
19102;BMP280;9683;49.028;12.064;2023-04-02T14:06:51;97218.16;;;12.59
19102;BMP280;9683;49.028;12.064;2023-04-02T14:09:27;97221.09;;;12.57
19102;BMP280;9683;49.028;12.064;2023-04-02T14:12:03;97230.38;;;12.55
19102;BMP280;9683;49.028;12.064;2023-04-02T14:14:45;97233.72;;;12.50
19102;BMP280;9683;49.028;12.064;2023-04-02T14:17:22;97237.69;;;12.48
19102;BMP280;9683;49.028;12.064;2023-04-02T14:20:10;97231.69;;;12.40
19102;BMP280;9683;49.028;12.064;2023-04-02T14:22:50;97238.75;;;12.35
19102;BMP280;9683;49.028;12.064;2023-04-02T14:25:25;97250.94;;;12.31
19102;BMP280;9683;49.028;12.064;2023-04-02T14:28:00;97248.28;;;12.31
19102;BMP280;9683;49.028;12.064;2023-04-02T14:30:38;97253.38;;;12.21
19102;BMP280;9683;49.028;12.064;2023-04-02T14:33:17;97246.81;;;12.12
19102;BMP280;9683;49.028;12.064;2023-04-02T14:35:51;97259.31;;;12.11
19102;BMP280;9683;49.028;12.064;2023-04-02T14:38:24;97260.13;;;12.12
19102;BMP280;9683;49.028;12.064;2023-04-02T14:40:58;97247.59;;;12.12